createdAt,value
2022-11-05T00:00:20.306Z,100997.22
2022-11-05T00:01:41.770Z,101005.16
2022-11-05T00:03:03.053Z,100995.33
2022-11-05T00:04:11.132Z,100989.89
2022-11-05T00:05:32.617Z,100999.73
2022-11-05T00:06:53.664Z,100999.73
2022-11-05T00:08:15.941Z,100996.17
2022-11-05T00:09:32.218Z,100995.33
2022-11-05T00:10:37.614Z,100999.09
2022-11-05T00:11:58.848Z,100993.84
2022-11-05T00:13:20.368Z,100999.27
2022-11-05T00:14:41.626Z,100995.70
2022-11-05T00:16:03.491Z,100995.70
2022-11-05T00:17:06.328Z,100994.02
2022-11-05T00:18:09.152Z,100997.41
2022-11-05T00:19:12.900Z,101001.13
2022-11-05T00:20:17.564Z,101000.11
2022-11-05T00:21:38.682Z,100997.22
2022-11-05T00:23:00.026Z,100998.88
2022-11-05T00:24:24.272Z,100993.45
2022-11-05T00:25:31.362Z,100994.30
2022-11-05T00:26:34.243Z,100997.69
2022-11-05T00:27:37.425Z,101001.24
2022-11-05T00:28:43.190Z,100995.64
2022-11-05T00:29:46.193Z,100996.28
2022-11-05T00:30:49.270Z,100998.81
2022-11-05T00:31:52.647Z,100992.36
2022-11-05T00:32:59.084Z,100994.05
2022-11-05T00:34:02.367Z,101001.98
2022-11-05T00:35:07.543Z,101001.98
2022-11-05T00:36:11.389Z,100998.25
2022-11-05T00:37:15.222Z,100993.66
2022-11-05T00:38:18.459Z,101001.62
2022-11-05T00:39:21.310Z,101001.62
2022-11-05T00:40:24.147Z,101006.03
2022-11-05T00:41:27.309Z,101009.77
2022-11-05T00:42:48.517Z,101002.66
2022-11-05T00:44:10.965Z,101001.62
2022-11-05T00:45:13.849Z,100999.09
2022-11-05T00:46:17.233Z,101007.41
2022-11-05T00:47:38.799Z,101010.13
2022-11-05T00:49:00.221Z,101004.06
2022-11-05T00:50:03.468Z,101004.24
2022-11-05T00:51:06.995Z,101009.84
2022-11-05T00:52:28.087Z,101017.34
2022-11-05T00:53:30.937Z,101015.66
2022-11-05T00:54:33.807Z,101008.54
2022-11-05T00:55:39.528Z,101014.32
2022-11-05T00:56:42.383Z,101019.95
2022-11-05T00:57:45.217Z,101013.02
2022-11-05T00:58:48.480Z,101024.05
2022-11-05T00:59:51.392Z,101020.52
2022-11-05T01:00:57.883Z,101018.16
2022-11-05T01:02:00.941Z,101021.89
2022-11-05T01:03:15.804Z,101021.89
2022-11-05T01:04:20.080Z,101020.20
2022-11-05T01:05:22.931Z,101022.09
2022-11-05T01:06:25.743Z,101023.96
2022-11-05T01:07:28.622Z,101024.81
2022-11-05T01:08:31.464Z,101018.53
2022-11-05T01:09:34.513Z,101022.09
2022-11-05T01:10:43.373Z,101018.53
2022-11-05T01:11:46.403Z,101019.38
2022-11-05T01:12:49.322Z,101028.34
2022-11-05T01:13:52.403Z,101019.17
2022-11-05T01:14:55.326Z,101019.17
2022-11-05T01:16:01.791Z,101022.73
2022-11-05T01:17:04.885Z,101025.45
2022-11-05T01:18:08.103Z,101025.45
2022-11-05T01:19:11.934Z,101026.30
2022-11-05T01:20:15.909Z,101024.42
2022-11-05T01:21:18.861Z,101025.27
2022-11-05T01:22:21.684Z,101024.25
2022-11-05T01:23:24.592Z,101026.75
2022-11-05T01:24:27.526Z,101023.87
2022-11-05T01:25:30.439Z,101026.41
2022-11-05T01:26:33.458Z,101020.80
2022-11-05T01:27:37.581Z,101019.75
2022-11-05T01:28:40.519Z,101024.16
2022-11-05T01:29:43.659Z,101026.69
2022-11-05T01:30:48.268Z,101026.69
2022-11-05T01:31:51.444Z,101022.11
2022-11-05T01:32:54.437Z,101028.56
2022-11-05T01:33:59.029Z,101029.41
2022-11-05T01:35:03.178Z,101029.23
2022-11-05T01:36:06.542Z,101032.79
2022-11-05T01:37:09.475Z,101031.95
2022-11-05T01:38:12.294Z,101038.22
2022-11-05T01:39:15.385Z,101039.88
2022-11-05T01:40:21.847Z,101035.50
2022-11-05T01:41:24.700Z,101035.50
2022-11-05T01:42:30.197Z,101032.79
2022-11-05T01:43:54.696Z,101037.37
2022-11-05T01:45:01.101Z,101035.50
2022-11-05T01:46:03.975Z,101036.52
2022-11-05T01:47:09.673Z,101040.08
2022-11-05T01:48:16.124Z,101035.67
2022-11-05T01:49:28.504Z,101035.67
2022-11-05T01:50:35.090Z,101042.97
2022-11-05T01:51:39.442Z,101044.84
2022-11-05T01:52:42.315Z,101041.28
2022-11-05T01:54:00.742Z,101035.86
2022-11-05T01:55:05.080Z,101039.41
2022-11-05T01:56:11.673Z,101042.12
2022-11-05T01:57:15.216Z,101043.82
2022-11-05T01:58:21.318Z,101042.80
2022-11-05T01:59:30.391Z,101042.80
2022-11-05T02:00:35.784Z,101042.59
2022-11-05T02:01:39.121Z,101044.28
2022-11-05T02:02:43.673Z,101041.39
2022-11-05T02:03:49.525Z,101046.64
2022-11-05T02:04:56.332Z,101054.58
2022-11-05T02:06:02.090Z,101047.28
2022-11-05T02:07:07.108Z,101043.55
2022-11-05T02:08:14.134Z,101047.11
2022-11-05T02:09:20.539Z,101050.66
2022-11-05T02:10:23.708Z,101056.09
2022-11-05T02:11:26.565Z,101058.81
2022-11-05T02:12:30.412Z,101056.94
2022-11-05T02:13:33.366Z,101058.64
2022-11-05T02:14:37.195Z,101055.25
2022-11-05T02:15:52.437Z,101057.79
2022-11-05T02:17:22.079Z,101058.64
2022-11-05T02:18:40.747Z,101064.06
2022-11-05T02:20:02.433Z,101061.52
2022-11-05T02:21:34.378Z,101066.11
2022-11-05T02:23:11.546Z,101064.41
2022-11-05T02:24:39.499Z,101065.44
2022-11-05T02:26:01.276Z,101063.78
2022-11-05T02:27:19.464Z,101064.97
2022-11-05T02:28:34.859Z,101065.99
2022-11-05T02:30:07.201Z,101071.63
2022-11-05T02:31:19.640Z,101070.96
2022-11-05T02:33:56.270Z,101074.25
2022-11-05T02:35:27.045Z,101076.56
2022-11-05T02:36:39.475Z,101074.87
2022-11-05T02:37:54.806Z,101086.78
2022-11-05T02:39:17.881Z,101083.39
2022-11-05T02:40:42.348Z,101089.84
2022-11-05T02:42:03.515Z,101087.30
2022-11-05T02:43:15.924Z,101085.81
2022-11-05T02:44:25.157Z,101079.72
2022-11-05T02:45:34.768Z,101081.78
2022-11-05T02:46:46.972Z,101084.67
2022-11-05T02:48:05.847Z,101084.00
2022-11-05T02:49:28.547Z,101090.27
2022-11-05T02:50:43.821Z,101088.78
2022-11-05T02:51:58.086Z,101083.36
2022-11-05T02:53:13.703Z,101093.16
2022-11-05T02:54:35.625Z,101091.50
2022-11-05T02:55:42.101Z,101087.73
2022-11-05T02:56:47.948Z,101090.27
2022-11-05T02:57:50.802Z,101091.30
2022-11-05T02:58:53.654Z,101091.97
2022-11-05T03:00:06.101Z,101096.38
2022-11-05T03:01:11.914Z,101092.64
2022-11-05T03:02:14.947Z,101098.88
2022-11-05T03:03:21.575Z,101095.14
2022-11-05T03:04:25.825Z,101096.66
2022-11-05T03:05:32.248Z,101090.22
2022-11-05T03:07:10.352Z,101093.78
2022-11-05T03:08:16.745Z,101097.13
2022-11-05T03:09:32.536Z,101099.67
2022-11-05T03:10:42.248Z,101088.82
2022-11-05T03:12:03.206Z,101101.16
2022-11-05T03:13:24.585Z,101103.70
2022-11-05T03:14:53.582Z,101106.24
2022-11-05T03:16:00.144Z,101092.50
2022-11-05T03:17:13.183Z,101086.22
2022-11-05T03:18:26.001Z,101084.35
2022-11-05T03:19:32.516Z,101087.91
2022-11-05T03:20:39.119Z,101088.55
2022-11-05T03:21:55.817Z,101092.96
2022-11-05T03:23:26.493Z,101097.37
2022-11-05T03:24:35.362Z,101098.86
2022-11-05T03:25:47.881Z,101101.39
2022-11-05T03:26:57.886Z,101101.39
2022-11-05T03:28:04.279Z,101106.65
2022-11-05T03:29:10.669Z,101099.53
2022-11-05T03:30:18.239Z,101102.06
2022-11-05T03:31:24.809Z,101105.42
2022-11-05T03:32:31.364Z,101109.83
2022-11-05T03:33:38.357Z,101105.07
2022-11-05T03:34:54.012Z,101111.98
2022-11-05T03:36:00.531Z,101116.22
2022-11-05T03:37:05.887Z,101113.33
2022-11-05T03:38:24.297Z,101117.70
2022-11-05T03:39:31.000Z,101117.53
2022-11-05T03:40:37.153Z,101114.81
2022-11-05T03:41:43.163Z,101117.35
2022-11-05T03:42:49.853Z,101120.07
2022-11-05T03:43:56.881Z,101120.91
2022-11-05T03:45:03.603Z,101121.77
2022-11-05T03:46:22.178Z,101125.11
2022-11-05T03:47:32.217Z,101125.96
2022-11-05T03:48:38.701Z,101131.39
2022-11-05T03:49:45.184Z,101129.52
2022-11-05T03:51:00.732Z,101125.96
2022-11-05T03:52:09.845Z,101126.63
2022-11-05T03:53:16.287Z,101127.48
2022-11-05T03:54:19.057Z,101128.33
2022-11-05T03:55:25.438Z,101128.96
2022-11-05T03:56:34.622Z,101129.81
2022-11-05T03:57:41.000Z,101137.78
2022-11-05T03:58:45.281Z,101132.34
2022-11-05T03:59:50.124Z,101132.34
2022-11-05T04:00:53.085Z,101136.76
2022-11-05T04:01:56.732Z,101135.91
2022-11-05T04:02:59.992Z,101139.47
2022-11-05T04:04:04.902Z,101142.19
2022-11-05T04:05:08.152Z,101137.78
2022-11-05T04:06:30.496Z,101139.47
2022-11-05T04:07:51.877Z,101158.27
2022-11-05T04:09:13.317Z,101145.75
2022-11-05T04:10:35.298Z,101142.19
2022-11-05T04:11:56.665Z,101151.36
2022-11-05T04:13:18.185Z,101145.08
2022-11-05T04:14:21.687Z,101149.66
2022-11-05T04:15:25.059Z,101145.92
2022-11-05T04:16:46.455Z,101147.80
2022-11-05T04:17:49.377Z,101148.81
2022-11-05T04:18:52.508Z,101161.38
2022-11-05T04:20:14.374Z,101154.25
2022-11-05T04:21:35.895Z,101156.12
2022-11-05T04:22:57.341Z,101152.55
2022-11-05T04:24:09.495Z,101156.12
2022-11-05T04:25:13.628Z,101160.70
2022-11-05T04:26:16.454Z,101156.33
2022-11-05T04:27:19.270Z,101159.05
2022-11-05T04:28:23.969Z,101164.47
2022-11-05T04:29:37.984Z,101157.14
2022-11-05T04:30:41.268Z,101155.27
2022-11-05T04:31:44.312Z,101156.97
2022-11-05T04:33:07.705Z,101162.39
2022-11-05T04:34:10.827Z,101155.09
2022-11-05T04:35:13.959Z,101172.23
2022-11-05T04:36:19.073Z,101166.80
2022-11-05T04:37:22.124Z,101169.52
2022-11-05T04:38:24.936Z,101170.38
2022-11-05T04:39:27.748Z,101172.91
2022-11-05T04:40:30.704Z,101172.91
2022-11-05T04:41:33.640Z,101175.63
2022-11-05T04:42:36.593Z,101178.13
2022-11-05T04:43:39.560Z,101168.96
2022-11-05T04:44:42.414Z,101178.80
2022-11-05T04:45:45.536Z,101168.79
2022-11-05T04:46:48.469Z,101171.33
2022-11-05T04:47:51.550Z,101181.14
2022-11-05T04:48:54.454Z,101178.25
2022-11-05T04:49:57.401Z,101184.53
2022-11-05T04:51:00.289Z,101179.09
2022-11-05T04:52:03.265Z,101178.08
2022-11-05T04:53:06.209Z,101178.92
2022-11-05T04:54:09.188Z,101181.46
2022-11-05T04:55:12.340Z,101182.27
2022-11-05T04:56:21.766Z,101183.97
2022-11-05T04:57:24.724Z,101187.53
2022-11-05T04:58:27.787Z,101185.66
2022-11-05T04:59:30.723Z,101188.20
2022-11-05T05:00:33.578Z,101195.33
2022-11-05T05:01:36.748Z,101203.48
2022-11-05T05:02:39.795Z,101198.89
2022-11-05T05:03:43.205Z,101209.94
2022-11-05T05:04:46.030Z,101209.09
2022-11-05T05:05:50.260Z,101210.95
2022-11-05T05:06:53.832Z,101211.98
2022-11-05T05:08:04.281Z,101207.39
2022-11-05T05:09:07.672Z,101206.55
2022-11-05T05:10:11.377Z,101203.66
2022-11-05T05:11:16.657Z,101207.39
2022-11-05T05:12:19.819Z,101207.22
2022-11-05T05:13:22.759Z,101217.06
2022-11-05T05:14:25.789Z,101219.57
2022-11-05T05:15:28.863Z,101222.29
2022-11-05T05:16:32.174Z,101219.57
2022-11-05T09:10:01.910Z,101415.14
2022-11-05T09:11:05.575Z,101424.97
2022-11-05T09:12:12.988Z,101417.02
2022-11-05T09:13:18.769Z,101415.30
2022-11-05T09:14:18.246Z,101424.61
2022-11-05T09:15:22.641Z,101423.09
2022-11-05T09:16:26.210Z,101425.28
2022-11-05T09:17:29.354Z,101430.88
2022-11-05T09:18:33.329Z,101434.77
2022-11-05T09:19:39.789Z,101436.10
2022-11-05T09:20:41.653Z,101435.61
2022-11-05T09:21:44.812Z,101430.52
2022-11-05T09:22:47.756Z,101431.86
2022-11-05T09:23:50.683Z,101433.03
2022-11-05T09:24:53.647Z,101427.94
2022-11-05T09:25:56.608Z,101428.42
2022-11-05T09:26:59.547Z,101434.53
2022-11-05T09:29:27.975Z,101432.79
2022-11-05T09:30:31.221Z,101431.98
2022-11-05T09:31:34.124Z,101437.89
2022-11-05T09:32:37.237Z,101438.41
2022-11-05T09:33:40.870Z,101429.74
2022-11-05T09:34:44.423Z,101430.06
2022-11-05T09:35:47.263Z,101430.37
2022-11-05T09:36:50.116Z,101430.86
2022-11-05T09:37:58.202Z,101425.10
2022-11-05T09:38:57.985Z,101435.59
2022-11-05T09:40:01.120Z,101437.97
2022-11-05T09:41:08.281Z,101425.05
2022-11-05T09:42:14.779Z,101436.42
2022-11-05T09:43:20.288Z,101435.04
2022-11-05T09:44:29.762Z,101432.97
2022-11-05T09:45:35.547Z,101438.92
2022-11-05T09:46:50.997Z,101440.41
2022-11-05T09:47:57.649Z,101434.81
2022-11-05T09:49:06.847Z,101430.06
2022-11-05T09:50:16.547Z,101434.48
2022-11-05T09:51:23.895Z,101437.84
2022-11-05T09:52:30.340Z,101434.79
2022-11-05T09:53:36.380Z,101436.66
2022-11-05T09:54:39.754Z,101437.84
2022-11-05T09:55:45.770Z,101439.91
2022-11-05T09:56:48.750Z,101440.25
2022-11-05T09:58:00.902Z,101446.70
2022-11-05T09:59:13.296Z,101447.55
2022-11-05T10:00:17.075Z,101443.98
2022-11-05T10:02:38.861Z,101448.70
2022-11-05T10:03:45.434Z,101449.47
2022-11-05T10:04:52.349Z,101451.87
2022-11-05T10:05:58.910Z,101448.84
2022-11-05T10:07:05.309Z,101440.37
2022-11-05T10:08:23.224Z,101443.42
2022-11-05T10:09:39.636Z,101449.22
2022-11-05T10:10:49.043Z,101444.63
2022-11-05T10:11:55.547Z,101440.02
2022-11-05T10:13:07.714Z,101440.70
2022-11-05T10:14:14.301Z,101443.25
2022-11-05T10:15:23.713Z,101442.04
2022-11-05T10:16:32.931Z,101445.44
2022-11-05T10:17:39.280Z,101452.20
2022-11-05T10:18:46.087Z,101452.03
2022-11-05T10:19:55.967Z,101458.96
2022-11-05T10:20:59.001Z,101455.91
2022-11-05T10:22:10.737Z,101465.56
2022-11-05T10:23:16.877Z,101460.81
2022-11-05T10:24:21.012Z,101464.00
2022-11-05T10:25:27.512Z,101459.25
2022-11-05T10:26:30.476Z,101457.22
2022-11-05T10:27:36.382Z,101465.17
2022-11-05T10:28:39.438Z,101456.85
2022-11-05T10:29:43.028Z,101459.41
2022-11-05T10:30:48.785Z,101461.09
2022-11-05T10:31:53.953Z,101461.27
2022-11-05T10:33:00.197Z,101468.94
2022-11-05T10:34:06.231Z,101461.97
2022-11-05T10:35:12.687Z,101463.36
2022-11-05T10:36:32.344Z,101455.75
2022-11-05T10:37:40.629Z,101460.49
2022-11-05T10:38:41.514Z,101468.16
2022-11-05T10:39:44.356Z,101471.03
2022-11-05T10:40:50.844Z,101465.77
2022-11-05T10:42:18.241Z,101472.91
2022-11-05T10:43:44.710Z,101467.30
2022-11-05T10:44:54.334Z,101466.29
2022-11-05T10:50:58.803Z,101478.81
2022-11-05T10:52:05.251Z,101474.77
2022-11-05T10:53:32.581Z,101480.36
2022-11-05T10:54:36.004Z,101472.22
2022-11-05T10:55:42.107Z,101482.06
2022-11-05T10:56:45.594Z,101487.49
2022-11-05T10:57:50.348Z,101488.51
2022-11-05T10:58:56.296Z,101487.86
2022-11-05T11:00:18.037Z,101486.16
2022-11-05T11:01:22.862Z,101484.46
2022-11-05T11:02:28.646Z,101489.04
2022-11-05T11:03:46.541Z,101486.52
2022-11-05T11:04:55.694Z,101494.67
2022-11-05T11:06:03.946Z,101493.98
2022-11-05T11:07:19.711Z,101488.88
2022-11-05T11:08:25.562Z,101504.52
2022-11-05T11:09:34.554Z,101502.82
2022-11-05T11:10:43.976Z,101500.47
2022-11-05T11:11:51.532Z,101504.36
2022-11-05T11:12:56.711Z,101495.53
2022-11-05T11:14:15.415Z,101508.25
2022-11-05T11:15:25.566Z,101509.30
2022-11-05T11:16:32.130Z,101504.36
2022-11-05T11:17:35.030Z,101508.28
2022-11-05T11:18:41.122Z,101500.14
2022-11-05T11:19:44.677Z,101513.02
2022-11-05T11:20:47.647Z,101507.59
2022-11-05T11:22:06.252Z,101510.51
2022-11-05T11:23:15.115Z,101516.42
2022-11-05T11:24:24.624Z,101522.20
2022-11-05T11:25:34.980Z,101517.80
2022-11-05T11:26:39.974Z,101519.81
2022-11-05T11:27:42.917Z,101518.47
2022-11-05T11:28:49.135Z,101515.27
2022-11-05T11:29:59.401Z,101521.87
2022-11-05T11:31:14.769Z,101520.36
2022-11-05T11:32:20.037Z,101521.37
2022-11-05T11:33:26.963Z,101521.37
2022-11-05T11:34:38.821Z,101516.80
2022-11-05T11:35:47.441Z,101521.02
2022-11-05T11:41:55.995Z,101512.03
2022-11-05T11:43:02.416Z,101525.61
2022-11-05T11:44:14.690Z,101517.83
2022-11-05T11:45:30.277Z,101522.72
2022-11-05T11:46:34.771Z,101522.89
2022-11-05T11:47:41.359Z,101518.66
2022-11-05T11:48:47.090Z,101523.93
2022-11-05T11:49:59.143Z,101526.64
2022-11-05T11:51:17.682Z,101524.78
2022-11-05T11:52:30.424Z,101529.35
2022-11-05T11:53:35.076Z,101530.20
2022-11-05T11:54:38.286Z,101534.09
2022-11-05T11:55:43.213Z,101538.81
2022-11-05T11:56:47.974Z,101533.59
2022-11-05T11:57:54.050Z,101529.83
2022-11-05T11:58:59.861Z,101537.15
2022-11-05T12:00:08.715Z,101538.16
2022-11-05T12:01:28.372Z,101540.02
2022-11-05T12:07:16.946Z,101544.91
2022-11-05T12:08:50.692Z,101536.28
2022-11-05T12:10:13.691Z,101538.98
2022-11-05T12:11:28.900Z,101535.42
2022-11-05T12:12:51.897Z,101540.84
2022-11-05T12:14:01.794Z,101546.27
2022-11-05T12:15:26.583Z,101549.99
2022-11-05T12:16:49.156Z,101549.99
2022-11-05T12:18:04.874Z,101551.03
2022-11-05T12:19:41.746Z,101554.06
2022-11-05T12:21:00.182Z,101553.56
2022-11-05T12:22:24.614Z,101554.57
2022-11-05T12:23:39.859Z,101552.02
2022-11-05T12:24:57.881Z,101554.23
2022-11-05T12:26:16.176Z,101550.82
2022-11-05T12:27:25.800Z,101554.54
2022-11-05T12:28:36.231Z,101558.45
2022-11-05T12:29:51.891Z,101554.20
2022-11-05T12:31:04.067Z,101549.81
2022-11-05T12:32:30.483Z,101559.11
2022-11-05T12:33:48.658Z,101557.56
2022-11-05T12:35:01.681Z,101556.05
2022-11-05T12:36:21.616Z,101556.05
2022-11-05T12:37:43.702Z,101560.27
2022-11-05T12:39:06.607Z,101555.39
2022-11-05T12:40:28.501Z,101562.17
2022-11-05T12:41:59.342Z,101560.16
2022-11-05T12:43:11.749Z,101559.80
2022-11-05T12:44:32.334Z,101562.36
2022-11-05T12:45:47.802Z,101561.34
2022-11-05T12:47:03.505Z,101568.28
2022-11-05T12:48:23.298Z,101567.62
2022-11-05T12:49:59.649Z,101567.62
2022-11-05T12:51:06.226Z,101570.64
2022-11-05T12:52:21.905Z,101570.30
2022-11-05T12:53:34.322Z,101570.64
2022-11-05T12:54:52.719Z,101572.66
2022-11-05T12:55:59.321Z,101568.09
2022-11-05T12:57:03.892Z,101573.52
2022-11-05T12:58:13.093Z,101569.09
2022-11-05T12:59:34.592Z,101576.37
2022-11-05T13:00:41.123Z,101576.37
2022-11-05T13:01:47.900Z,101577.08
2022-11-05T13:02:54.442Z,101582.49
2022-11-05T13:04:01.009Z,101581.48
2022-11-05T13:05:38.053Z,101585.86
2022-11-05T13:06:44.782Z,101579.44
2022-11-05T13:08:00.518Z,101588.58
2022-11-05T13:09:16.947Z,101586.21
2022-11-05T13:10:38.339Z,101586.21
2022-11-05T13:11:56.817Z,101585.70
2022-11-05T13:13:06.485Z,101587.72
2022-11-05T13:14:15.807Z,101587.88
2022-11-05T13:15:28.239Z,101596.19
2022-11-05T13:16:37.388Z,101595.65
2022-11-05T13:17:56.256Z,101596.84
2022-11-05T13:19:14.859Z,101591.73
2022-11-05T13:20:21.444Z,101601.72
2022-11-05T13:21:28.139Z,101602.91
2022-11-05T13:22:46.209Z,101603.06
2022-11-05T13:24:01.933Z,101602.22
2022-11-05T13:25:11.447Z,101606.63
2022-11-05T13:26:21.628Z,101609.19
2022-11-05T13:27:56.985Z,101614.42
2022-11-05T13:29:15.345Z,101614.42
2022-11-05T13:30:21.886Z,101610.86
2022-11-05T13:31:31.465Z,101613.56
2022-11-05T13:32:37.967Z,101621.54
2022-11-05T13:33:46.775Z,101621.38
2022-11-05T13:34:51.957Z,101627.66
2022-11-05T13:36:16.658Z,101636.45
2022-11-05T13:37:30.555Z,101632.58
2022-11-05T13:40:01.077Z,101629.08
2022-11-05T13:41:31.497Z,101631.23
2022-11-05T13:42:49.933Z,101635.13
2022-11-05T13:44:02.370Z,101640.20
2022-11-05T13:45:21.084Z,101634.08
2022-11-05T13:46:33.688Z,101634.23
2022-11-05T13:48:01.553Z,101636.95
2022-11-05T13:49:18.322Z,101640.84
2022-11-05T13:50:37.078Z,101638.28
2022-11-05T13:51:51.992Z,101640.30
2022-11-05T13:53:15.111Z,101639.45
2022-11-05T13:54:40.855Z,101636.73
2022-11-05T13:55:58.998Z,101639.63
2022-11-05T13:57:14.649Z,101645.84
2022-11-05T13:58:45.060Z,101645.84
2022-11-05T14:00:14.443Z,101648.70
2022-11-05T14:01:36.035Z,101644.33
2022-11-05T14:02:42.595Z,101642.78
2022-11-05T14:03:49.192Z,101641.08
2022-11-05T14:05:01.418Z,101644.78
2022-11-05T14:06:06.174Z,101642.27
2022-11-05T14:07:19.076Z,101644.27
2022-11-05T14:08:25.597Z,101641.20
2022-11-05T14:09:28.461Z,101641.20
2022-11-05T14:10:40.305Z,101640.34
2022-11-05T14:11:46.750Z,101645.91
2022-11-05T14:12:52.831Z,101646.09
2022-11-05T14:14:05.092Z,101639.12
2022-11-05T14:15:17.665Z,101640.98
2022-11-05T14:16:23.052Z,101639.12
2022-11-05T14:17:32.601Z,101644.39
2022-11-05T14:18:39.245Z,101652.52
2022-11-05T14:20:05.311Z,101649.66
2022-11-05T14:21:32.325Z,101645.91
2022-11-05T14:22:41.209Z,101661.16
2022-11-05T14:23:49.762Z,101648.62
2022-11-05T14:24:52.901Z,101656.08
2022-11-05T14:26:18.663Z,101660.64
2022-11-05T17:02:12.596Z,101818.59
2022-11-05T17:03:15.991Z,101824.14
2022-11-05T17:04:19.022Z,101824.55
2022-11-05T17:05:28.227Z,101816.70
2022-11-05T17:06:31.521Z,101822.52
2022-11-05T17:07:38.568Z,101824.77
2022-11-05T17:08:39.780Z,101825.17
2022-11-05T17:09:42.889Z,101824.57
2022-11-05T17:10:45.999Z,101822.41
2022-11-05T17:11:48.884Z,101821.98
2022-11-05T17:12:52.156Z,101821.67
2022-11-05T17:13:56.242Z,101815.98
2022-11-05T17:14:59.442Z,101827.19
2022-11-05T17:16:02.769Z,101829.44
2022-11-05T17:17:05.956Z,101828.98
2022-11-05T17:18:16.946Z,101825.81
2022-11-05T17:19:15.926Z,101830.09
2022-11-05T17:20:39.865Z,101828.91
2022-11-05T17:21:39.612Z,101825.06
2022-11-05T17:22:42.588Z,101826.59
2022-11-05T17:23:45.666Z,101826.45
2022-11-05T17:24:48.705Z,101826.17
2022-11-05T17:25:54.525Z,101829.55
2022-11-05T17:26:57.623Z,101833.83
2022-11-05T17:28:01.342Z,101834.50
2022-11-05T17:29:04.553Z,101839.77
2022-11-05T17:30:09.115Z,101839.63
2022-11-05T17:31:17.265Z,101840.30
2022-11-05T17:32:20.502Z,101843.58
2022-11-05T17:33:23.845Z,101850.70
2022-11-05T17:34:27.041Z,101843.40
2022-11-05T17:35:30.224Z,101847.81
2022-11-05T17:36:33.299Z,101844.99
2022-11-05T17:37:36.256Z,101853.83
2022-11-05T17:38:39.405Z,101850.94
2022-11-05T17:39:42.438Z,101858.91
2022-11-05T17:40:45.556Z,101852.36
2022-11-05T17:41:48.723Z,101855.06
2022-11-05T17:42:52.228Z,101854.89
2022-11-05T17:43:56.921Z,101859.30
2022-11-05T17:45:00.226Z,101852.03
2022-11-05T17:46:09.042Z,101857.30
2022-11-05T17:47:13.156Z,101849.86
2022-11-05T17:48:18.050Z,101849.86
2022-11-05T17:49:21.570Z,101857.84
2022-11-05T17:50:25.140Z,101860.55
2022-11-05T17:51:28.220Z,101858.84
2022-11-05T17:52:33.017Z,101857.98
2022-11-05T17:53:36.892Z,101866.10
2022-11-05T17:54:39.996Z,101856.13
2022-11-05T17:55:44.924Z,101861.40
2022-11-05T17:56:48.671Z,101863.11
2022-11-05T17:57:54.398Z,101861.25
2022-11-05T17:58:59.939Z,101864.81
2022-11-05T18:00:04.964Z,101866.52
2022-11-05T18:01:28.674Z,101871.94
2022-11-05T18:02:33.538Z,101872.23
2022-11-05T18:03:36.939Z,101867.13
2022-11-05T18:04:40.117Z,101876.26
2022-11-05T18:05:43.536Z,101873.70
2022-11-05T18:06:46.891Z,101883.67
2022-11-05T18:07:50.541Z,101880.11
2022-11-05T18:08:53.668Z,101882.81
2022-11-05T18:09:57.048Z,101889.94
2022-11-05T18:11:00.126Z,101888.94
2022-11-05T18:12:04.567Z,101885.23
2022-11-05T18:13:07.705Z,101884.05
2022-11-05T18:14:11.065Z,101890.19
2022-11-05T18:15:14.578Z,101881.20
2022-11-05T18:16:17.513Z,101889.33
2022-11-05T18:17:20.666Z,101880.50
2022-11-05T18:18:23.754Z,101885.05
2022-11-05T18:19:27.525Z,101887.94
2022-11-05T18:20:31.014Z,101882.52
2022-11-05T18:21:34.176Z,101889.65
2022-11-05T18:22:39.162Z,101885.77
2022-11-05T18:23:42.673Z,101884.77
2022-11-05T18:24:48.537Z,101890.89
2022-11-05T18:25:51.771Z,101889.86
2022-11-05T18:26:55.817Z,101890.72
2022-11-05T18:27:59.087Z,101896.98
2022-11-05T18:29:03.956Z,101895.27
2022-11-05T18:30:10.220Z,101888.86
2022-11-05T18:31:18.395Z,101894.98
2022-11-05T18:32:21.357Z,101891.28
2022-11-05T18:33:24.561Z,101895.66
2022-11-05T18:34:27.423Z,101896.38
2022-11-05T18:35:30.662Z,101905.20
2022-11-05T18:36:33.898Z,101901.64
2022-11-05T18:37:38.545Z,101906.06
2022-11-05T18:38:41.661Z,101906.91
2022-11-05T18:39:44.959Z,101912.33
2022-11-05T18:40:48.052Z,101905.88
2022-11-05T18:41:51.163Z,101908.45
2022-11-05T18:42:54.440Z,101909.30
2022-11-05T18:44:02.480Z,101905.59
2022-11-05T18:45:06.646Z,101906.45
2022-11-05T18:46:23.778Z,101911.69
2022-11-05T18:47:16.088Z,101909.83
2022-11-05T18:48:19.189Z,101911.69
2022-11-05T18:49:22.303Z,101918.66
2022-11-05T18:50:26.183Z,101916.81
2022-11-05T18:51:29.288Z,101913.25
2022-11-05T18:52:32.510Z,101914.95
2022-11-05T18:53:35.569Z,101915.81
2022-11-05T18:54:38.690Z,101915.81
2022-11-05T18:55:41.788Z,101918.52
2022-11-05T18:56:45.736Z,101916.48
2022-11-05T18:57:49.091Z,101917.34
2022-11-05T18:59:14.780Z,101919.05
2022-11-05T18:59:58.115Z,101918.05
2022-11-05T19:01:06.345Z,101917.05
2022-11-05T19:02:07.551Z,101923.32
2022-11-05T19:03:10.602Z,101923.32
2022-11-05T19:04:14.434Z,101919.58
2022-11-05T19:05:32.944Z,101916.88
2022-11-05T19:06:24.440Z,101922.29
2022-11-05T19:07:27.421Z,101920.61
2022-11-05T19:08:32.023Z,101921.29
2022-11-05T19:09:36.360Z,101927.56
2022-11-05T19:10:40.786Z,101917.73
2022-11-05T19:11:43.705Z,101922.29
2022-11-05T19:12:47.117Z,101927.56
2022-11-05T19:13:50.180Z,101930.27
2022-11-05T19:14:56.692Z,101930.98
2022-11-05T19:15:58.020Z,101933.69
2022-11-05T19:17:01.676Z,101920.14
2022-11-05T19:18:04.687Z,101933.84
2022-11-05T19:19:07.678Z,101929.27
2022-11-05T19:20:12.671Z,101932.98
2022-11-05T19:21:19.048Z,101932.98
2022-11-05T19:22:21.961Z,101939.25
2022-11-05T19:23:24.844Z,101938.40
2022-11-05T19:24:28.108Z,101944.53
2022-11-05T19:25:31.405Z,101943.81
2022-11-05T19:26:34.403Z,101940.25
2022-11-05T19:27:38.287Z,101941.25
2022-11-05T19:28:42.527Z,101933.12
2022-11-05T19:29:46.824Z,101933.12
2022-11-05T19:30:50.285Z,101933.12
2022-11-05T19:31:53.168Z,101938.55
2022-11-05T19:32:56.733Z,101940.25
2022-11-05T19:34:04.866Z,101935.69
2022-11-05T19:35:08.566Z,101937.55
2022-11-05T19:36:14.817Z,101933.98
2022-11-05T19:37:18.655Z,101942.96
2022-11-05T19:38:22.141Z,101941.97
2022-11-05T19:39:25.452Z,101939.25
2022-11-05T19:40:28.409Z,101939.25
2022-11-05T19:41:31.319Z,101940.25
2022-11-05T19:42:34.180Z,101942.11
2022-11-05T19:43:38.584Z,101940.25
2022-11-05T19:44:42.565Z,101947.52
2022-11-05T19:45:45.661Z,101947.52
2022-11-05T19:46:48.627Z,101947.52
2022-11-05T19:47:52.026Z,101949.38
2022-11-05T19:48:55.200Z,101948.52
2022-11-05T19:49:58.025Z,101950.41